createdAt,value
2023-05-08T00:02:10.936Z,21.80
2023-05-08T00:04:37.562Z,21.80
2023-05-08T00:07:04.227Z,21.80
2023-05-08T00:09:30.820Z,21.70
2023-05-08T00:11:57.418Z,21.70
2023-05-08T00:14:24.011Z,21.70
2023-05-08T00:16:51.197Z,21.70
2023-05-08T00:19:17.878Z,21.70
2023-05-08T00:21:44.440Z,21.70
2023-05-08T00:24:11.012Z,21.70
2023-05-08T00:26:37.569Z,21.70
2023-05-08T00:29:06.409Z,21.70
2023-05-08T00:31:33.461Z,21.70
2023-05-08T00:34:00.250Z,21.60
2023-05-08T00:36:27.611Z,21.70
2023-05-08T00:38:54.299Z,21.70
2023-05-08T00:41:20.900Z,21.70
2023-05-08T00:43:47.555Z,22.00
2023-05-08T00:46:14.168Z,21.70
2023-05-08T00:48:40.929Z,21.70
2023-05-08T00:51:08.263Z,21.70
2023-05-08T00:53:37.282Z,21.60
2023-05-08T00:56:03.964Z,21.60
2023-05-08T00:58:30.961Z,21.60
2023-05-08T01:00:59.418Z,21.60
2023-05-08T01:03:26.278Z,21.60
2023-05-08T01:05:52.915Z,21.70
2023-05-08T01:08:19.560Z,21.60
2023-05-08T01:10:58.718Z,21.60
2023-05-08T01:13:42.857Z,21.60
2023-05-08T01:16:16.700Z,21.60
2023-05-08T01:18:45.977Z,21.60
2023-05-08T01:21:32.805Z,21.70
2023-05-08T01:24:20.065Z,21.80
2023-05-08T01:27:05.524Z,21.90
2023-05-08T01:29:35.094Z,22.00
2023-05-08T01:32:04.705Z,22.10
2023-05-08T01:34:31.851Z,22.20
2023-05-08T01:36:59.774Z,22.20
2023-05-08T01:39:45.346Z,22.10
2023-05-08T01:42:21.013Z,22.10
2023-05-08T01:44:49.181Z,22.10
2023-05-08T01:47:15.901Z,22.10
2023-05-08T01:49:44.694Z,22.00
2023-05-08T01:52:15.767Z,22.00
2023-05-08T01:54:58.068Z,22.00
2023-05-08T01:57:24.722Z,21.90
2023-05-08T01:59:51.358Z,21.90
2023-05-08T02:02:17.971Z,21.90
2023-05-08T02:04:44.611Z,21.80
2023-05-08T02:07:11.332Z,21.80
2023-05-08T02:09:37.909Z,21.80
2023-05-08T02:12:04.479Z,21.80
2023-05-08T02:14:31.149Z,21.80
2023-05-08T02:16:57.845Z,21.90
2023-05-08T02:19:24.819Z,21.90
2023-05-08T02:21:51.391Z,21.90
2023-05-08T02:24:17.952Z,21.70
2023-05-08T02:26:45.070Z,21.70
2023-05-08T02:29:11.732Z,21.70
2023-05-08T02:31:38.387Z,21.60
2023-05-08T02:34:05.057Z,21.80
2023-05-08T02:36:31.640Z,21.70
2023-05-08T02:38:58.678Z,21.70
2023-05-08T02:41:26.041Z,21.70
2023-05-08T02:43:52.800Z,21.60
2023-05-08T02:46:26.502Z,22.00
2023-05-08T02:48:56.248Z,21.60
2023-05-08T02:51:29.119Z,21.60
2023-05-08T02:53:59.471Z,21.60
2023-05-08T02:56:39.222Z,21.60
2023-05-08T02:59:16.774Z,21.50
2023-05-08T03:01:50.965Z,21.60
2023-05-08T03:04:28.307Z,21.60
2023-05-08T03:06:55.087Z,21.80
2023-05-08T03:09:21.755Z,21.60
2023-05-08T03:11:49.062Z,21.70
2023-05-08T03:14:16.154Z,21.50
2023-05-08T03:16:43.061Z,21.50
2023-05-08T03:19:28.154Z,21.80
2023-05-08T03:21:54.773Z,21.50
2023-05-08T03:24:21.379Z,21.60
2023-05-08T03:26:47.954Z,21.60
2023-05-08T03:29:14.596Z,21.60
2023-05-08T03:31:41.472Z,21.50
2023-05-08T03:34:08.405Z,21.50
2023-05-08T03:36:34.983Z,21.50
2023-05-08T03:39:01.543Z,21.40
2023-05-08T03:41:28.116Z,21.40
2023-05-08T03:43:54.952Z,21.50
2023-05-08T03:46:21.564Z,21.80
2023-05-08T03:48:48.200Z,21.70
2023-05-08T03:51:15.256Z,21.50
2023-05-08T03:53:41.831Z,21.50
2023-05-08T03:56:08.458Z,21.50
2023-05-08T03:58:48.658Z,21.60
2023-05-08T04:01:54.123Z,21.50
2023-05-08T04:04:27.997Z,21.40
2023-05-08T04:07:04.062Z,21.40
2023-05-08T04:09:49.436Z,21.40
2023-05-08T04:12:18.176Z,21.40
2023-05-08T04:14:49.114Z,21.40
2023-05-08T04:17:15.980Z,21.40
2023-05-08T04:19:43.994Z,21.50
2023-05-08T04:22:10.668Z,21.80
2023-05-08T04:24:39.061Z,21.40
2023-05-08T04:27:05.631Z,22.10
2023-05-08T04:29:32.367Z,21.70
2023-05-08T04:31:59.053Z,22.00
2023-05-08T04:34:25.662Z,22.30
2023-05-08T04:36:52.255Z,22.10
2023-05-08T04:39:19.915Z,22.00
2023-05-08T04:41:48.020Z,22.10
2023-05-08T04:44:14.709Z,22.00
2023-05-08T04:46:41.343Z,21.90
2023-05-08T04:49:08.024Z,21.90
2023-05-08T04:51:34.690Z,21.90
2023-05-08T04:54:01.262Z,21.80
2023-05-08T04:56:27.833Z,22.10
2023-05-08T04:58:54.405Z,21.80
2023-05-08T05:01:21.028Z,21.80
2023-05-08T05:03:47.685Z,21.70
2023-05-08T05:06:14.385Z,21.70
2023-05-08T05:08:41.076Z,21.70
2023-05-08T05:11:07.680Z,21.70
2023-05-08T05:13:34.248Z,21.70
2023-05-08T05:16:01.060Z,21.70
2023-05-08T05:18:27.730Z,21.60
2023-05-08T05:20:54.322Z,21.60
2023-05-08T05:23:20.951Z,21.70
2023-05-08T05:25:47.526Z,21.60
2023-05-08T05:28:14.163Z,21.60
2023-05-08T05:30:40.759Z,21.60
2023-05-08T05:33:07.453Z,21.60
2023-05-08T05:35:34.081Z,21.50
2023-05-08T05:38:00.682Z,21.80
2023-05-08T05:40:27.272Z,21.60
2023-05-08T05:42:54.123Z,21.70
2023-05-08T05:45:21.440Z,21.60
2023-05-08T05:47:53.966Z,21.60
2023-05-08T05:50:21.312Z,21.50
2023-05-08T05:52:47.877Z,21.50
2023-05-08T05:55:14.737Z,21.50
2023-05-08T05:57:41.461Z,21.60
2023-05-08T06:00:08.919Z,21.40
2023-05-08T06:02:36.258Z,21.50
2023-05-08T06:05:03.092Z,21.50
2023-05-08T06:07:29.681Z,21.70
2023-05-08T06:09:56.287Z,21.50
2023-05-08T06:12:22.918Z,21.40
2023-05-08T06:14:51.803Z,21.50
2023-05-08T06:17:19.119Z,21.50
2023-05-08T06:19:50.386Z,21.50
2023-05-08T06:22:18.230Z,21.50
2023-05-08T06:24:45.188Z,21.50
2023-05-08T06:27:11.806Z,21.60
2023-05-08T06:29:38.430Z,21.60
2023-05-08T06:32:05.106Z,21.60
2023-05-08T06:34:31.731Z,21.50
2023-05-08T06:36:58.291Z,21.70
2023-05-08T06:39:24.930Z,21.40
2023-05-08T06:41:51.515Z,21.30
2023-05-08T06:44:18.202Z,21.70
2023-05-08T06:46:44.827Z,21.50
2023-05-08T06:49:11.472Z,21.70
2023-05-08T06:51:39.415Z,21.30
2023-05-08T06:54:08.245Z,21.40
2023-05-08T06:56:35.304Z,21.70
2023-05-08T06:59:08.443Z,21.40
2023-05-08T07:01:37.298Z,21.80
2023-05-08T07:04:04.437Z,21.40
2023-05-08T07:06:31.200Z,21.40
2023-05-08T07:08:57.818Z,21.40
2023-05-08T07:11:24.504Z,21.40
2023-05-08T07:13:51.099Z,21.60
2023-05-08T07:16:17.733Z,21.50
2023-05-08T07:18:44.443Z,21.50
2023-05-08T07:21:11.162Z,21.40
2023-05-08T07:23:37.846Z,21.60
2023-05-08T07:26:04.515Z,21.80
2023-05-08T07:28:31.161Z,21.70
2023-05-08T07:30:57.759Z,21.90
2023-05-08T07:33:24.355Z,22.00
2023-05-08T07:35:51.010Z,22.10
2023-05-08T07:38:17.568Z,22.10
2023-05-08T07:40:44.146Z,22.10
2023-05-08T07:43:10.774Z,22.10
2023-05-08T07:45:37.323Z,22.00
2023-05-08T07:48:04.047Z,22.10
2023-05-08T07:50:31.412Z,21.90
2023-05-08T07:52:58.025Z,22.00
2023-05-08T07:55:24.638Z,21.90
2023-05-08T07:57:51.203Z,22.00
2023-05-08T08:00:17.873Z,22.00
2023-05-08T08:02:44.761Z,21.80
2023-05-08T08:05:11.720Z,22.00
2023-05-08T08:07:38.682Z,21.80
2023-05-08T08:10:05.559Z,21.80
2023-05-08T08:12:32.257Z,21.80
2023-05-08T08:14:58.834Z,21.80
2023-05-08T08:17:28.302Z,21.70
2023-05-08T08:19:55.381Z,21.70
2023-05-08T08:22:21.984Z,21.80
2023-05-08T08:24:48.586Z,21.70
2023-05-08T08:27:15.178Z,21.80
2023-05-08T08:29:41.761Z,21.70
2023-05-08T08:32:08.406Z,21.80
2023-05-08T08:34:35.048Z,22.00
2023-05-08T08:37:01.687Z,21.90
2023-05-08T08:39:28.320Z,21.80
2023-05-08T08:41:54.967Z,21.70
2023-05-08T08:44:21.533Z,21.70
2023-05-08T08:46:51.564Z,21.80
2023-05-08T08:49:18.669Z,21.70
2023-05-08T08:51:52.688Z,21.70
2023-05-08T08:54:23.542Z,21.70
2023-05-08T08:56:50.450Z,21.70
2023-05-08T08:59:17.377Z,21.70
2023-05-08T09:01:51.513Z,21.70
2023-05-08T09:04:18.292Z,21.70
2023-05-08T09:06:45.938Z,21.70
2023-05-08T09:09:13.079Z,21.60
2023-05-08T09:11:40.157Z,21.70
2023-05-08T09:14:07.165Z,21.70
2023-05-08T09:16:33.846Z,21.80
2023-05-08T09:19:00.490Z,21.80
2023-05-08T09:21:27.110Z,21.70
2023-05-08T09:23:57.532Z,21.90
2023-05-08T09:26:32.368Z,21.70
2023-05-08T09:29:11.414Z,21.70
2023-05-08T09:31:41.584Z,21.70
2023-05-08T09:34:08.521Z,21.70
2023-05-08T09:36:35.173Z,21.60
2023-05-08T09:39:02.200Z,21.70
2023-05-08T09:41:28.846Z,21.60
2023-05-08T09:44:02.364Z,21.70
2023-05-08T09:46:29.245Z,21.70
2023-05-08T09:48:56.456Z,21.70
2023-05-08T09:51:23.394Z,21.70
2023-05-08T09:53:51.457Z,21.70
2023-05-08T09:56:28.876Z,21.70
2023-05-08T09:58:55.454Z,21.70
2023-05-08T10:01:35.014Z,21.70
2023-05-08T10:04:01.873Z,21.80
2023-05-08T10:06:28.702Z,21.90
2023-05-08T10:09:11.851Z,22.10
2023-05-08T10:11:39.161Z,22.10
2023-05-08T10:14:05.799Z,22.30
2023-05-08T10:16:35.240Z,22.20
2023-05-08T10:19:05.957Z,22.20
2023-05-08T10:21:34.178Z,22.20
2023-05-08T10:24:00.745Z,22.10
2023-05-08T10:26:27.718Z,22.10
2023-05-08T10:29:04.810Z,22.10
2023-05-08T10:31:33.378Z,22.00
2023-05-08T10:34:01.782Z,22.00
2023-05-08T10:36:30.933Z,21.90
2023-05-08T10:38:57.839Z,22.00
2023-05-08T10:41:24.441Z,21.90
2023-05-08T10:43:51.034Z,21.90
2023-05-08T10:46:21.223Z,21.90
2023-05-08T10:48:54.279Z,21.90
2023-05-08T10:51:27.678Z,21.90
2023-05-08T10:53:55.878Z,21.90
2023-05-08T10:56:28.719Z,21.90
2023-05-08T10:58:55.703Z,21.90
2023-05-08T11:01:22.348Z,21.90
2023-05-08T11:03:50.938Z,21.80
2023-05-08T11:06:18.076Z,21.80
2023-05-08T11:08:44.610Z,21.80
2023-05-08T11:11:14.215Z,21.90
2023-05-08T11:13:41.358Z,21.90
2023-05-08T11:16:10.120Z,21.90
2023-05-08T11:18:48.488Z,21.80
2023-05-08T11:21:19.771Z,21.90
2023-05-08T11:23:46.434Z,21.90
2023-05-08T11:26:13.350Z,22.00
2023-05-08T11:28:40.634Z,22.20
2023-05-08T11:31:07.811Z,22.20
2023-05-08T11:33:37.745Z,22.20
2023-05-08T11:36:17.305Z,22.20
2023-05-08T11:38:44.021Z,22.20
2023-05-08T11:41:11.185Z,22.20
2023-05-08T11:43:47.066Z,22.20
2023-05-08T11:46:14.429Z,22.10
2023-05-08T11:48:40.999Z,22.00
2023-05-08T11:51:07.561Z,22.00
2023-05-08T11:53:34.587Z,22.00
2023-05-08T11:56:01.235Z,22.00
2023-05-08T11:58:27.848Z,22.00
2023-05-08T12:00:55.427Z,22.00
2023-05-08T12:03:22.850Z,22.00
2023-05-08T12:05:49.942Z,22.00
2023-05-08T12:08:17.133Z,22.00
2023-05-08T12:10:46.973Z,21.90
2023-05-08T12:13:18.089Z,21.90
2023-05-08T12:15:48.253Z,21.90
2023-05-08T12:18:15.338Z,21.90
2023-05-08T12:20:41.958Z,21.90
2023-05-08T12:23:10.117Z,21.90
2023-05-08T12:25:37.396Z,21.90
2023-05-08T12:28:04.025Z,21.90
2023-05-08T12:30:31.131Z,21.90
2023-05-08T12:32:57.780Z,21.90
2023-05-08T12:35:24.800Z,21.90
2023-05-08T12:37:52.470Z,21.90
2023-05-08T12:40:26.012Z,21.90
2023-05-08T12:42:52.704Z,22.00
2023-05-08T12:45:22.362Z,22.10
2023-05-08T12:47:49.316Z,22.20
2023-05-08T12:50:16.445Z,22.30
2023-05-08T12:52:43.556Z,22.30
2023-05-08T12:55:25.629Z,22.30
2023-05-08T12:58:09.336Z,22.30
2023-05-08T13:00:41.683Z,22.20
2023-05-08T13:03:08.718Z,22.20
2023-05-08T13:05:36.840Z,22.20
2023-05-08T13:08:04.130Z,22.20
2023-05-08T13:10:51.014Z,22.10
2023-05-08T13:13:18.707Z,22.10
2023-05-08T13:15:45.415Z,22.10
2023-05-08T13:18:12.103Z,22.00
2023-05-08T13:20:41.809Z,22.10
2023-05-08T13:23:08.587Z,22.10
2023-05-08T13:25:38.586Z,22.10
2023-05-08T13:28:05.357Z,22.00
2023-05-08T13:30:31.954Z,22.00
2023-05-08T13:32:58.633Z,22.00
2023-05-08T13:35:25.599Z,22.00
2023-05-08T13:37:52.234Z,22.00
2023-05-08T13:40:18.921Z,22.00
2023-05-08T13:42:45.524Z,22.00
2023-05-08T13:45:14.656Z,21.90
2023-05-08T13:47:45.058Z,21.90
2023-05-08T13:50:12.109Z,21.90
2023-05-08T13:52:38.958Z,21.90
2023-05-08T13:55:06.146Z,21.90
2023-05-08T13:57:32.763Z,21.90
2023-05-08T13:59:59.365Z,21.90
2023-05-08T14:02:26.700Z,21.90
2023-05-08T14:04:53.774Z,22.10
2023-05-08T14:07:20.377Z,22.00
2023-05-08T14:09:47.020Z,22.10
2023-05-08T14:12:13.629Z,22.20
2023-05-08T14:14:40.336Z,22.30
2023-05-08T14:17:07.095Z,22.40
2023-05-08T14:19:33.741Z,22.40
2023-05-08T14:22:00.395Z,22.40
2023-05-08T14:24:27.032Z,22.30
2023-05-08T14:26:53.812Z,22.30
2023-05-08T14:29:20.530Z,22.30
2023-05-08T14:31:48.504Z,22.20
2023-05-08T14:34:15.161Z,22.20
2023-05-08T14:36:41.823Z,22.20
2023-05-08T14:39:08.983Z,22.20
2023-05-08T14:41:36.923Z,22.10
2023-05-08T14:44:03.610Z,22.10
2023-05-08T14:46:30.320Z,22.10
2023-05-08T14:48:57.086Z,22.10
2023-05-08T14:51:23.750Z,22.10
2023-05-08T14:53:50.499Z,22.10
2023-05-08T14:56:18.102Z,22.10
2023-05-08T14:58:44.875Z,22.10
2023-05-08T15:01:11.472Z,22.00
2023-05-08T15:03:38.183Z,22.00
2023-05-08T15:06:05.042Z,22.00
2023-05-08T15:08:31.664Z,22.00
2023-05-08T15:10:58.617Z,22.00
2023-05-08T15:13:25.366Z,22.00
2023-05-08T15:15:52.109Z,22.00
2023-05-08T15:18:18.742Z,22.00
2023-05-08T15:20:45.412Z,22.00
2023-05-08T15:23:14.194Z,22.00
2023-05-08T15:25:43.870Z,22.00
2023-05-08T15:28:19.525Z,22.10
2023-05-08T15:30:46.962Z,22.20
2023-05-08T15:33:13.608Z,22.30
2023-05-08T15:35:40.213Z,22.40
2023-05-08T15:38:07.637Z,22.40
2023-05-08T15:40:34.652Z,22.40
2023-05-08T15:43:02.388Z,22.40
2023-05-08T15:45:29.638Z,22.40
2023-05-08T15:47:56.486Z,22.30
2023-05-08T15:50:23.557Z,22.30
2023-05-08T15:52:50.138Z,22.30
2023-05-08T15:55:17.680Z,22.30
2023-05-08T15:57:44.796Z,22.20
2023-05-08T16:00:11.775Z,22.20
2023-05-08T16:02:38.457Z,22.20
2023-05-08T16:05:05.425Z,22.20
2023-05-08T16:07:36.387Z,22.10
2023-05-08T16:10:05.238Z,22.10
2023-05-08T16:12:32.803Z,22.10
2023-05-08T16:14:59.403Z,22.10
2023-05-08T16:17:26.026Z,22.10
2023-05-08T16:19:52.640Z,22.00
2023-05-08T16:22:19.259Z,22.10
2023-05-08T16:24:45.882Z,22.00
2023-05-08T16:27:12.465Z,22.00
2023-05-08T16:29:39.089Z,22.00
2023-05-08T16:32:05.944Z,22.10
2023-05-08T16:34:32.690Z,22.00
2023-05-08T16:36:59.345Z,22.00
2023-05-08T16:39:25.984Z,22.00
2023-05-08T16:41:52.621Z,22.00
2023-05-08T16:44:19.263Z,22.10
2023-05-08T16:46:46.011Z,22.10
2023-05-08T16:49:12.654Z,22.20
2023-05-08T16:51:39.258Z,22.30
2023-05-08T16:54:06.372Z,22.40
2023-05-08T16:56:32.965Z,22.40
2023-05-08T16:59:01.421Z,22.40
2023-05-08T17:01:28.189Z,22.40
2023-05-08T17:03:54.795Z,22.40
2023-05-08T17:06:21.510Z,22.40
2023-05-08T17:08:48.123Z,22.30
2023-05-08T17:11:14.710Z,22.30
2023-05-08T17:13:43.101Z,22.30
2023-05-08T17:16:09.710Z,22.30
2023-05-08T17:18:36.324Z,22.20
2023-05-08T17:21:02.950Z,22.20
2023-05-08T17:23:29.531Z,22.30
2023-05-08T17:25:59.792Z,22.20
2023-05-08T17:28:26.576Z,22.20
2023-05-08T17:30:53.314Z,22.20
2023-05-08T17:33:21.024Z,22.10
2023-05-08T17:35:47.670Z,22.20
2023-05-08T17:38:14.377Z,22.10
2023-05-08T17:40:41.079Z,22.10
2023-05-08T17:43:08.822Z,22.10
2023-05-08T17:45:35.561Z,22.30
2023-05-08T17:48:02.235Z,22.00
2023-05-08T17:50:28.955Z,22.10
2023-05-08T17:52:55.610Z,22.10
2023-05-08T17:55:22.280Z,22.00
2023-05-08T17:57:48.950Z,22.10
2023-05-08T18:00:16.076Z,22.10
2023-05-08T18:02:42.841Z,22.10
2023-05-08T18:05:09.914Z,22.10
2023-05-08T18:07:36.640Z,22.20
2023-05-08T18:10:03.448Z,22.30
2023-05-08T18:12:30.056Z,22.40
2023-05-08T18:14:56.670Z,22.50
2023-05-08T18:17:23.412Z,22.50
2023-05-08T18:19:50.080Z,22.50
2023-05-08T18:22:16.681Z,22.50
2023-05-08T18:24:45.533Z,22.50
2023-05-08T18:27:12.162Z,22.40
2023-05-08T18:29:38.812Z,22.40
2023-05-08T18:32:05.507Z,22.40
2023-05-08T18:34:33.003Z,22.40
2023-05-08T18:36:59.601Z,22.40
2023-05-08T18:39:26.235Z,22.30
2023-05-08T18:41:52.841Z,22.30
2023-05-08T18:44:19.457Z,22.30
2023-05-08T18:46:46.600Z,22.20
2023-05-08T18:49:13.305Z,22.20
2023-05-08T18:51:39.877Z,22.20
2023-05-08T18:54:06.477Z,22.20
2023-05-08T18:56:34.306Z,22.20
2023-05-08T18:59:00.966Z,22.20
2023-05-08T19:01:27.741Z,22.20
2023-05-08T19:03:54.766Z,22.20
2023-05-08T19:06:21.505Z,22.10
2023-05-08T19:08:48.486Z,22.10
2023-05-08T19:11:15.175Z,22.10
2023-05-08T19:13:41.871Z,22.10
2023-05-08T19:16:08.491Z,22.10
2023-05-08T19:18:35.176Z,22.10
2023-05-08T19:21:01.916Z,22.10
2023-05-08T19:23:29.498Z,22.10
2023-05-08T19:25:56.167Z,22.10
2023-05-08T19:28:22.804Z,22.10
2023-05-08T19:30:49.397Z,22.10
2023-05-08T19:33:20.370Z,22.10
2023-05-08T19:35:47.513Z,22.10
2023-05-08T19:38:14.231Z,22.10
2023-05-08T19:40:54.903Z,22.10
2023-05-08T19:43:23.547Z,22.00
2023-05-08T19:45:50.149Z,22.10
2023-05-08T19:48:19.544Z,22.00
2023-05-08T19:50:46.371Z,22.00
2023-05-08T19:53:13.013Z,22.00
2023-05-08T19:55:39.614Z,22.00
2023-05-08T19:58:06.253Z,22.00
2023-05-08T20:00:32.855Z,22.00
2023-05-08T20:02:59.532Z,22.00
2023-05-08T20:05:26.237Z,22.00
2023-05-08T20:07:52.892Z,22.00
2023-05-08T20:10:19.492Z,22.00
2023-05-08T20:12:46.131Z,22.00
2023-05-08T20:15:12.876Z,22.00
2023-05-08T20:17:39.630Z,22.00
2023-05-08T20:20:06.612Z,22.00
2023-05-08T20:22:33.250Z,22.10
2023-05-08T20:25:01.103Z,22.20
2023-05-08T20:27:29.389Z,22.40
2023-05-08T20:29:56.043Z,22.40
2023-05-08T20:32:22.733Z,22.50
2023-05-08T20:34:49.364Z,22.50
2023-05-08T20:37:16.040Z,22.50
2023-05-08T20:39:42.903Z,22.50
2023-05-08T20:42:09.519Z,22.40
2023-05-08T20:44:36.115Z,22.40
2023-05-08T20:47:02.709Z,22.20
2023-05-08T20:49:29.340Z,22.30
2023-05-08T20:51:55.920Z,22.30
2023-05-08T20:54:22.594Z,22.30
2023-05-08T20:56:49.195Z,22.40
2023-05-08T20:59:16.717Z,22.20
2023-05-08T21:01:43.504Z,22.20
2023-05-08T21:04:10.354Z,22.20
2023-05-08T21:06:36.963Z,22.10
2023-05-08T21:09:05.224Z,22.20
2023-05-08T21:11:33.433Z,22.10
2023-05-08T21:14:00.158Z,22.10
2023-05-08T21:16:27.101Z,22.10
2023-05-08T21:18:55.499Z,22.10
2023-05-08T21:21:24.050Z,22.10
2023-05-08T21:23:50.682Z,22.10
2023-05-08T21:26:19.780Z,22.10
2023-05-08T21:28:46.398Z,21.90
2023-05-08T21:31:13.033Z,22.10
2023-05-08T21:33:39.729Z,22.00
2023-05-08T21:36:06.400Z,22.10
2023-05-08T21:38:33.049Z,22.00
2023-05-08T21:41:04.920Z,22.30
2023-05-08T21:43:31.502Z,22.10
2023-05-08T21:45:58.135Z,21.90
2023-05-08T21:48:24.741Z,22.00
2023-05-08T21:50:51.462Z,22.20
2023-05-08T21:53:18.140Z,22.20
2023-05-08T21:55:44.703Z,22.00
2023-05-08T21:58:11.369Z,21.90
2023-05-08T22:00:37.959Z,22.00
2023-05-08T22:03:04.593Z,22.00
2023-05-08T22:05:31.237Z,21.90
2023-05-08T22:07:57.821Z,21.90
2023-05-08T22:10:25.586Z,22.00
2023-05-08T22:12:52.241Z,21.90
2023-05-08T22:15:28.954Z,22.10
2023-05-08T22:17:56.802Z,22.00
2023-05-08T22:20:23.463Z,21.80
2023-05-08T22:22:50.572Z,21.90
2023-05-08T22:25:17.176Z,21.90
2023-05-08T22:27:43.741Z,21.90
2023-05-08T22:30:10.560Z,22.10
2023-05-08T22:32:37.195Z,21.90
2023-05-08T22:35:03.911Z,21.90
2023-05-08T22:37:30.566Z,21.90
2023-05-08T22:39:57.135Z,21.90
2023-05-08T22:42:24.171Z,21.90
2023-05-08T22:44:50.734Z,22.10
2023-05-08T22:47:17.352Z,21.80
2023-05-08T22:49:43.982Z,21.90
2023-05-08T22:52:10.592Z,21.90
2023-05-08T22:54:37.179Z,22.00
2023-05-08T22:57:03.929Z,22.00
2023-05-08T22:59:30.630Z,22.20
2023-05-08T23:01:57.351Z,22.30
2023-05-08T23:04:23.979Z,22.40
2023-05-08T23:06:50.565Z,22.50
2023-05-08T23:09:17.161Z,22.40
2023-05-08T23:11:43.813Z,22.40
2023-05-08T23:14:10.480Z,22.40
2023-05-08T23:16:37.097Z,22.30
2023-05-08T23:19:04.576Z,22.30
2023-05-08T23:21:32.140Z,22.20
2023-05-08T23:23:59.004Z,22.20
2023-05-08T23:26:26.097Z,22.30
2023-05-08T23:28:52.730Z,22.20
2023-05-08T23:31:19.407Z,22.30
2023-05-08T23:33:46.065Z,22.10
2023-05-08T23:36:12.674Z,22.20
2023-05-08T23:38:39.253Z,22.30
2023-05-08T23:41:05.838Z,22.10
2023-05-08T23:43:32.494Z,22.10
2023-05-08T23:45:59.114Z,22.10
2023-05-08T23:48:26.211Z,21.90
2023-05-08T23:50:53.454Z,22.10
2023-05-08T23:53:20.089Z,22.10
2023-05-08T23:55:48.976Z,22.10
2023-05-08T23:58:15.637Z,22.10
